Aviation Digital Data Service (ADDS)

Output produced by METARs form (0058 UTC 19 August 2019)
found at http://www.aviationweather.gov/metar/data/
 
METAR text: UHHH 190030Z 18003MPS 140V230 9999 SCT026CB 22/18 Q1011 R23L/190050 NOSIG RMK QFE752/1002
Conditions at: UHHH (KHABAROVSK/NOVY , RU) observed 0030 UTC 19 August 2019
Temperature: 22.0°C (72°F)
Dewpoint: 18.0°C (64°F) [RH = 78%]
Pressure (altimeter): 29.85 inches Hg (1011.0 mb)
Winds: from the S (180 degrees) at 7 MPH (6 knots; 3.1 m/s)
Visibility: 6 or more miles (10+ km)
Ceiling: at least 12,000 feet AGL
Clouds: scattered clouds at 2600 feet AGL
Weather: no significant weather observed at this time

METAR text: UHHH 190000Z 19003MPS 130V240 9999 FEW018CB 21/19 Q1011 R23L/190050 NOSIG RMK QFE751/1002
Conditions at: UHHH (KHABAROVSK/NOVY , RU) observed 0000 UTC 19 August 2019
Temperature: 21.0°C (70°F)
Dewpoint: 19.0°C (66°F) [RH = 88%]
Pressure (altimeter): 29.85 inches Hg (1011.0 mb)
Winds: from the S (190 degrees) at 7 MPH (6 knots; 3.1 m/s)
Visibility: 6 or more miles (10+ km)
Ceiling: at least 12,000 feet AGL
Clouds: few clouds at 1800 feet AGL
Weather: no significant weather observed at this time

METAR text: UHHH 182330Z 19003MPS 150V230 9999 FEW010 SCT018CB 21/18 Q1010 R23L/190050 NOSIG RMK QFE751/1002
Conditions at: UHHH (KHABAROVSK/NOVY , RU) observed 2330 UTC 18 August 2019
Temperature: 21.0°C (70°F)
Dewpoint: 18.0°C (64°F) [RH = 83%]
Pressure (altimeter): 29.82 inches Hg (1010.0 mb)
Winds: from the S (190 degrees) at 7 MPH (6 knots; 3.1 m/s)
Visibility: 6 or more miles (10+ km)
Ceiling: at least 12,000 feet AGL
Clouds: few clouds at 1000 feet AGL
scattered clouds at 1800 feet AGL
Weather: no significant weather observed at this time

METAR text: UHHH 182300Z 18002MPS 120V220 9999 FEW010 SCT025CB 20/19 Q1010 R23L/190050 NOSIG RMK QFE751/1002
Conditions at: UHHH (KHABAROVSK/NOVY , RU) observed 2300 UTC 18 August 2019
Temperature: 20.0°C (68°F)
Dewpoint: 19.0°C (66°F) [RH = 94%]
Pressure (altimeter): 29.82 inches Hg (1010.0 mb)
Winds: from the S (180 degrees) at 5 MPH (4 knots; 2.1 m/s)
Visibility: 6 or more miles (10+ km)
Ceiling: at least 12,000 feet AGL
Clouds: few clouds at 1000 feet AGL
scattered clouds at 2500 feet AGL
Weather: no significant weather observed at this time

METAR text: UHHH 182230Z 18003MPS 080V230 9999 FEW012CB 20/19 Q1010 R23L/190050 NOSIG RMK QFE751/1001
Conditions at: UHHH (KHABAROVSK/NOVY , RU) observed 2230 UTC 18 August 2019
Temperature: 20.0°C (68°F)
Dewpoint: 19.0°C (66°F) [RH = 94%]
Pressure (altimeter): 29.82 inches Hg (1010.0 mb)
Winds: from the S (180 degrees) at 7 MPH (6 knots; 3.1 m/s)
Visibility: 6 or more miles (10+ km)
Ceiling: at least 12,000 feet AGL
Clouds: few clouds at 1200 feet AGL
Weather: no significant weather observed at this time

METAR text: UHHH 182200Z VRB01MPS 9999 SCT033CB 19/19 Q1010 R23L/190050 NOSIG RMK QFE751/1001
Conditions at: UHHH (KHABAROVSK/NOVY , RU) observed 2200 UTC 18 August 2019
Temperature: 19.0°C (66°F)
Dewpoint: 19.0°C (66°F) [RH = 100%]
Pressure (altimeter): 29.82 inches Hg (1010.0 mb)
Winds: variable direction winds at 2 MPH (2 knots; 1.0 m/s)
Visibility: 6 or more miles (10+ km)
Ceiling: at least 12,000 feet AGL
Clouds: scattered clouds at 3300 feet AGL
Weather: no significant weather observed at this time

METAR text: UHHH 182130Z VRB01MPS 9999 SCT035CB 17/17 Q1010 R23L/190050 NOSIG RMK QFE751/1001
Conditions at: UHHH (KHABAROVSK/NOVY , RU) observed 2130 UTC 18 August 2019
Temperature: 17.0°C (63°F)
Dewpoint: 17.0°C (63°F) [RH = 100%]
Pressure (altimeter): 29.82 inches Hg (1010.0 mb)
Winds: variable direction winds at 2 MPH (2 knots; 1.0 m/s)
Visibility: 6 or more miles (10+ km)
Ceiling: at least 12,000 feet AGL
Clouds: scattered clouds at 3500 feet AGL
Weather: no significant weather observed at this time

METAR text: UHHH 182100Z VRB01MPS CAVOK 17/17 Q1010 R23L/190050 NOSIG RMK QFE751/1001
Conditions at: UHHH (KHABAROVSK/NOVY , RU) observed 2100 UTC 18 August 2019
Temperature: 17.0°C (63°F)
Dewpoint: 17.0°C (63°F) [RH = 100%]
Pressure (altimeter): 29.82 inches Hg (1010.0 mb)
Winds: variable direction winds at 2 MPH (2 knots; 1.0 m/s)
Visibility: 6 or more miles (10+ km)
Ceiling: ceiling and visibility are OK
Clouds: unknown
Weather: no significant weather observed at this time

METAR text: UHHH 182030Z 00000MPS CAVOK 16/16 Q1009 R23L/190050 NOSIG RMK QFE750/1001
Conditions at: UHHH (KHABAROVSK/NOVY , RU) observed 2030 UTC 18 August 2019
Temperature: 16.0°C (61°F)
Dewpoint: 16.0°C (61°F) [RH = 100%]
Pressure (altimeter): 29.79 inches Hg (1009.0 mb)
Winds: calm
Visibility: 6 or more miles (10+ km)
Ceiling: ceiling and visibility are OK
Clouds: unknown
Weather: no significant weather observed at this time

METAR text: UHHH 182000Z VRB01MPS 9999 FEW028CB 16/16 Q1009 R23L/090060 NOSIG RMK QFE750/1000
Conditions at: UHHH (KHABAROVSK/NOVY , RU) observed 2000 UTC 18 August 2019
Temperature: 16.0°C (61°F)
Dewpoint: 16.0°C (61°F) [RH = 100%]
Pressure (altimeter): 29.79 inches Hg (1009.0 mb)
Winds: variable direction winds at 2 MPH (2 knots; 1.0 m/s)
Visibility: 6 or more miles (10+ km)
Ceiling: at least 12,000 feet AGL
Clouds: few clouds at 2800 feet AGL
Weather: no significant weather observed at this time

METAR text: UHHH 181930Z VRB01MPS 9999 SCT021CB 16/16 Q1008 R23L/090060 NOSIG RMK QFE750/1000
Conditions at: UHHH (KHABAROVSK/NOVY , RU) observed 1930 UTC 18 August 2019
Temperature: 16.0°C (61°F)
Dewpoint: 16.0°C (61°F) [RH = 100%]
Pressure (altimeter): 29.76 inches Hg (1008.0 mb)
Winds: variable direction winds at 2 MPH (2 knots; 1.0 m/s)
Visibility: 6 or more miles (10+ km)
Ceiling: at least 12,000 feet AGL
Clouds: scattered clouds at 2100 feet AGL
Weather: no significant weather observed at this time

METAR text: UHHH 181900Z VRB01MPS 9999 BKN023CB 16/16 Q1008 R05R/090060 NOSIG RMK QFE750/1000
Conditions at: UHHH (KHABAROVSK/NOVY , RU) observed 1900 UTC 18 August 2019
Temperature: 16.0°C (61°F)
Dewpoint: 16.0°C (61°F) [RH = 100%]
Pressure (altimeter): 29.76 inches Hg (1008.0 mb)
Winds: variable direction winds at 2 MPH (2 knots; 1.0 m/s)
Visibility: 6 or more miles (10+ km)
Ceiling: 2300 feet AGL
Clouds: broken clouds at 2300 feet AGL
Weather: no significant weather observed at this time

METAR text: UHHH 181830Z 00000MPS 9999 SCT033CB 16/16 Q1008 R05R/090060 NOSIG RMK QFE750/1000
Conditions at: UHHH (KHABAROVSK/NOVY , RU) observed 1830 UTC 18 August 2019
Temperature: 16.0°C (61°F)
Dewpoint: 16.0°C (61°F) [RH = 100%]
Pressure (altimeter): 29.76 inches Hg (1008.0 mb)
Winds: calm
Visibility: 6 or more miles (10+ km)
Ceiling: at least 12,000 feet AGL
Clouds: scattered clouds at 3300 feet AGL
Weather: no significant weather observed at this time

METAR text: UHHH 181800Z 10002MPS 9999 SCT008 OVC027CB 17/17 Q1008 R05R/090060 NOSIG RMK QFE750/1000
Conditions at: UHHH (KHABAROVSK/NOVY , RU) observed 1800 UTC 18 August 2019
Temperature: 17.0°C (63°F)
Dewpoint: 17.0°C (63°F) [RH = 100%]
Pressure (altimeter): 29.76 inches Hg (1008.0 mb)
Winds: from the E (100 degrees) at 5 MPH (4 knots; 2.1 m/s)
Visibility: 6 or more miles (10+ km)
Ceiling: 2700 feet AGL
Clouds: scattered clouds at 800 feet AGL
overcast cloud deck at 2700 feet AGL
Weather: no significant weather observed at this time

METAR text: UHHH 181730Z 04002MPS 9000 -DZ OVC003 17/17 Q1008 R05R/090060 NOSIG RMK QBB100 OBST OBSC QFE750/1000
Conditions at: UHHH (KHABAROVSK/NOVY , RU) observed 1730 UTC 18 August 2019
Temperature: 17.0°C (63°F)
Dewpoint: 17.0°C (63°F) [RH = 100%]
Pressure (altimeter): 29.76 inches Hg (1008.0 mb)
Winds: from the NE (40 degrees) at 5 MPH (4 knots; 2.1 m/s)
Visibility: 6 miles ( 9 km)
Ceiling: 300 feet AGL
Clouds: overcast cloud deck at 300 feet AGL
Weather: -DZ  (light drizzle)

METAR text: UHHH 181700Z 05002MPS 030V100 8000 -SHRA BKN003 BKN015CB 17/17 Q1008 R05R/090060 NOSIG RMK OBST OBSC QFE750/1000
Conditions at: UHHH (KHABAROVSK/NOVY , RU) observed 1700 UTC 18 August 2019
Temperature: 17.0°C (63°F)
Dewpoint: 17.0°C (63°F) [RH = 100%]
Pressure (altimeter): 29.76 inches Hg (1008.0 mb)
Winds: from the NE (50 degrees) at 5 MPH (4 knots; 2.1 m/s)
Visibility: 5 miles ( 8 km)
Ceiling: 300 feet AGL
Clouds: broken clouds at 300 feet AGL
broken clouds at 1500 feet AGL
Weather: -SHRA  (light rain showers)

METAR text: UHHH 181630Z 04002MPS 020V080 9999 -SHRA BKN003 BKN031CB 17/17 Q1008 R05R/090060 NOSIG RMK QBB090 OBST OBSC QFE749/0999
Conditions at: UHHH (KHABAROVSK/NOVY , RU) observed 1630 UTC 18 August 2019
Temperature: 17.0°C (63°F)
Dewpoint: 17.0°C (63°F) [RH = 100%]
Pressure (altimeter): 29.76 inches Hg (1008.0 mb)
Winds: from the NE (40 degrees) at 5 MPH (4 knots; 2.1 m/s)
Visibility: 6 or more miles (10+ km)
Ceiling: 300 feet AGL
Clouds: broken clouds at 300 feet AGL
broken clouds at 3100 feet AGL
Weather: -SHRA  (light rain showers)

METAR text: UHHH 181600Z 04002MPS 9000 -SHRA BKN002 BKN019CB 16/16 Q1007 R05R/090060 NOSIG RMK QBB070 OBST OBSC QFE749/0999
Conditions at: UHHH (KHABAROVSK/NOVY , RU) observed 1600 UTC 18 August 2019
Temperature: 16.0°C (61°F)
Dewpoint: 16.0°C (61°F) [RH = 100%]
Pressure (altimeter): 29.73 inches Hg (1007.0 mb)
Winds: from the NE (40 degrees) at 5 MPH (4 knots; 2.1 m/s)
Visibility: 6 miles ( 9 km)
Ceiling: 200 feet AGL
Clouds: broken clouds at 200 feet AGL
broken clouds at 1900 feet AGL
Weather: -SHRA  (light rain showers)

METAR text: UHHH 181530Z 03003MPS 9000 -SHRA BKN003 OVC036CB 16/16 Q1007 R05R/090060 NOSIG RMK QBB110 OBST OBSC QFE749/0999
Conditions at: UHHH (KHABAROVSK/NOVY , RU) observed 1530 UTC 18 August 2019
Temperature: 16.0°C (61°F)
Dewpoint: 16.0°C (61°F) [RH = 100%]
Pressure (altimeter): 29.73 inches Hg (1007.0 mb)
Winds: from the NNE (30 degrees) at 7 MPH (6 knots; 3.1 m/s)
Visibility: 6 miles ( 9 km)
Ceiling: 300 feet AGL
Clouds: broken clouds at 300 feet AGL
overcast cloud deck at 3600 feet AGL
Weather: -SHRA  (light rain showers)

METAR text: UHHH 181500Z 03003MPS 9999 -DZ BKN003 16/16 Q1007 R05R/090060 NOSIG RMK QBB090 OBST OBSC QFE749/0999
Conditions at: UHHH (KHABAROVSK/NOVY , RU) observed 1500 UTC 18 August 2019
Temperature: 16.0°C (61°F)
Dewpoint: 16.0°C (61°F) [RH = 100%]
Pressure (altimeter): 29.73 inches Hg (1007.0 mb)
Winds: from the NNE (30 degrees) at 7 MPH (6 knots; 3.1 m/s)
Visibility: 6 or more miles (10+ km)
Ceiling: 300 feet AGL
Clouds: broken clouds at 300 feet AGL
Weather: -DZ  (light drizzle)

METAR text: UHHH 181430Z 04003MPS 9999 OVC003 16/16 Q1007 R05R/090060 NOSIG RMK QBB100 OBST OBSC QFE749/0999
Conditions at: UHHH (KHABAROVSK/NOVY , RU) observed 1430 UTC 18 August 2019
Temperature: 16.0°C (61°F)
Dewpoint: 16.0°C (61°F) [RH = 100%]
Pressure (altimeter): 29.73 inches Hg (1007.0 mb)
Winds: from the NE (40 degrees) at 7 MPH (6 knots; 3.1 m/s)
Visibility: 6 or more miles (10+ km)
Ceiling: 300 feet AGL
Clouds: overcast cloud deck at 300 feet AGL
Weather: no significant weather observed at this time

METAR text: UHHH 181400Z 04004MPS 9999 OVC003 16/16 Q1007 R05R/090060 NOSIG RMK QBB100 OBST OBSC QFE749/0999
Conditions at: UHHH (KHABAROVSK/NOVY , RU) observed 1400 UTC 18 August 2019
Temperature: 16.0°C (61°F)
Dewpoint: 16.0°C (61°F) [RH = 100%]
Pressure (altimeter): 29.73 inches Hg (1007.0 mb)
Winds: from the NE (40 degrees) at 9 MPH (8 knots; 4.1 m/s)
Visibility: 6 or more miles (10+ km)
Ceiling: 300 feet AGL
Clouds: overcast cloud deck at 300 feet AGL
Weather: no significant weather observed at this time

METAR text: UHHH 181330Z 05004MPS 020V080 9999 OVC003 16/16 Q1007 R05R/090060 NOSIG RMK QBB110 OBST OBSC QFE749/0999
Conditions at: UHHH (KHABAROVSK/NOVY , RU) observed 1330 UTC 18 August 2019
Temperature: 16.0°C (61°F)
Dewpoint: 16.0°C (61°F) [RH = 100%]
Pressure (altimeter): 29.73 inches Hg (1007.0 mb)
Winds: from the NE (50 degrees) at 9 MPH (8 knots; 4.1 m/s)
Visibility: 6 or more miles (10+ km)
Ceiling: 300 feet AGL
Clouds: overcast cloud deck at 300 feet AGL
Weather: no significant weather observed at this time

METAR text: UHHH 181300Z 05005MPS 9999 OVC004 16/16 Q1007 R05R/090060 NOSIG RMK QBB120 OBST OBSC QFE749/0999
Conditions at: UHHH (KHABAROVSK/NOVY , RU) observed 1300 UTC 18 August 2019
Temperature: 16.0°C (61°F)
Dewpoint: 16.0°C (61°F) [RH = 100%]
Pressure (altimeter): 29.73 inches Hg (1007.0 mb)
Winds: from the NE (50 degrees) at 12 MPH (10 knots; 5.1 m/s)
Visibility: 6 or more miles (10+ km)
Ceiling: 400 feet AGL
Clouds: overcast cloud deck at 400 feet AGL
Weather: no significant weather observed at this time

METAR text: UHHH 181230Z 05004MPS 020V080 9999 OVC004 16/16 Q1007 R05R/090060 NOSIG RMK QBB120 OBST OBSC QFE749/0999
Conditions at: UHHH (KHABAROVSK/NOVY , RU) observed 1230 UTC 18 August 2019
Temperature: 16.0°C (61°F)
Dewpoint: 16.0°C (61°F) [RH = 100%]
Pressure (altimeter): 29.73 inches Hg (1007.0 mb)
Winds: from the NE (50 degrees) at 9 MPH (8 knots; 4.1 m/s)
Visibility: 6 or more miles (10+ km)
Ceiling: 400 feet AGL
Clouds: overcast cloud deck at 400 feet AGL
Weather: no significant weather observed at this time

METAR text: UHHH 181200Z 04005MPS 9999 OVC004 16/16 Q1007 R05R/090060 NOSIG RMK QBB130 OBST OBSC QFE749/0999
Conditions at: UHHH (KHABAROVSK/NOVY , RU) observed 1200 UTC 18 August 2019
Temperature: 16.0°C (61°F)
Dewpoint: 16.0°C (61°F) [RH = 100%]
Pressure (altimeter): 29.73 inches Hg (1007.0 mb)
Winds: from the NE (40 degrees) at 12 MPH (10 knots; 5.1 m/s)
Visibility: 6 or more miles (10+ km)
Ceiling: 400 feet AGL
Clouds: overcast cloud deck at 400 feet AGL
Weather: no significant weather observed at this time

METAR text: UHHH 181130Z 04006MPS 9999 OVC004 17/17 Q1007 R05R/090060 NOSIG RMK QBB120 OBST OBSC QFE749/0999
Conditions at: UHHH (KHABAROVSK/NOVY , RU) observed 1130 UTC 18 August 2019
Temperature: 17.0°C (63°F)
Dewpoint: 17.0°C (63°F) [RH = 100%]
Pressure (altimeter): 29.73 inches Hg (1007.0 mb)
Winds: from the NE (40 degrees) at 14 MPH (12 knots; 6.2 m/s)
Visibility: 6 or more miles (10+ km)
Ceiling: 400 feet AGL
Clouds: overcast cloud deck at 400 feet AGL
Weather: no significant weather observed at this time

METAR text: UHHH 181100Z 05006MPS 9000 -SHRA BKN004 OVC046CB 17/17 Q1007 R05R/090060 NOSIG RMK QBB130 OBST OBSC QFE749/0998
Conditions at: UHHH (KHABAROVSK/NOVY , RU) observed 1100 UTC 18 August 2019
Temperature: 17.0°C (63°F)
Dewpoint: 17.0°C (63°F) [RH = 100%]
Pressure (altimeter): 29.73 inches Hg (1007.0 mb)
Winds: from the NE (50 degrees) at 14 MPH (12 knots; 6.2 m/s)
Visibility: 6 miles ( 9 km)
Ceiling: 400 feet AGL
Clouds: broken clouds at 400 feet AGL
overcast cloud deck at 4600 feet AGL
Weather: -SHRA  (light rain showers)

METAR text: UHHH 181030Z 05005MPS 9999 BKN005 OVC045CB 17/17 Q1007 R05R/090060 NOSIG RMK QBB170 QFE749/0999
Conditions at: UHHH (KHABAROVSK/NOVY , RU) observed 1030 UTC 18 August 2019
Temperature: 17.0°C (63°F)
Dewpoint: 17.0°C (63°F) [RH = 100%]
Pressure (altimeter): 29.73 inches Hg (1007.0 mb)
Winds: from the NE (50 degrees) at 12 MPH (10 knots; 5.1 m/s)
Visibility: 6 or more miles (10+ km)
Ceiling: 500 feet AGL
Clouds: broken clouds at 500 feet AGL
overcast cloud deck at 4500 feet AGL
Weather: no significant weather observed at this time

METAR text: UHHH 181000Z 04005MPS 9999 -SHRA BKN007 BKN016CB 17/17 Q1006 R05R/090060 NOSIG RMK QFE748/0998
Conditions at: UHHH (KHABAROVSK/NOVY , RU) observed 1000 UTC 18 August 2019
Temperature: 17.0°C (63°F)
Dewpoint: 17.0°C (63°F) [RH = 100%]
Pressure (altimeter): 29.70 inches Hg (1006.0 mb)
Winds: from the NE (40 degrees) at 12 MPH (10 knots; 5.1 m/s)
Visibility: 6 or more miles (10+ km)
Ceiling: 700 feet AGL
Clouds: broken clouds at 700 feet AGL
broken clouds at 1600 feet AGL
Weather: -SHRA  (light rain showers)

METAR text: UHHH 180930Z 04005MPS 9999 SCT007 17/16 Q1006 R05R/090060 NOSIG RMK QFE748/0998
Conditions at: UHHH (KHABAROVSK/NOVY , RU) observed 0930 UTC 18 August 2019
Temperature: 17.0°C (63°F)
Dewpoint: 16.0°C (61°F) [RH = 94%]
Pressure (altimeter): 29.70 inches Hg (1006.0 mb)
Winds: from the NE (40 degrees) at 12 MPH (10 knots; 5.1 m/s)
Visibility: 6 or more miles (10+ km)
Ceiling: at least 12,000 feet AGL
Clouds: scattered clouds at 700 feet AGL
Weather: no significant weather observed at this time

METAR text: UHHH 180900Z 04006MPS 9999 SCT007 17/17 Q1006 R05R/090060 NOSIG RMK QFE748/0997
Conditions at: UHHH (KHABAROVSK/NOVY , RU) observed 0900 UTC 18 August 2019
Temperature: 17.0°C (63°F)
Dewpoint: 17.0°C (63°F) [RH = 100%]
Pressure (altimeter): 29.70 inches Hg (1006.0 mb)
Winds: from the NE (40 degrees) at 14 MPH (12 knots; 6.2 m/s)
Visibility: 6 or more miles (10+ km)
Ceiling: at least 12,000 feet AGL
Clouds: scattered clouds at 700 feet AGL
Weather: no significant weather observed at this time

METAR text: UHHH 180830Z 04007MPS 9999 SCT006 BKN014CB 17/17 Q1006 R05R/090060 NOSIG RMK QBB180 QFE748/0997
Conditions at: UHHH (KHABAROVSK/NOVY , RU) observed 0830 UTC 18 August 2019
Temperature: 17.0°C (63°F)
Dewpoint: 17.0°C (63°F) [RH = 100%]
Pressure (altimeter): 29.70 inches Hg (1006.0 mb)
Winds: from the NE (40 degrees) at 16 MPH (14 knots; 7.2 m/s)
Visibility: 6 or more miles (10+ km)
Ceiling: 1400 feet AGL
Clouds: scattered clouds at 600 feet AGL
broken clouds at 1400 feet AGL
Weather: no significant weather observed at this time

METAR text: UHHH 180800Z 03007MPS 9999 SCT007 BKN015CB 17/17 Q1006 R05R/090060 NOSIG RMK QFE748/0998
Conditions at: UHHH (KHABAROVSK/NOVY , RU) observed 0800 UTC 18 August 2019
Temperature: 17.0°C (63°F)
Dewpoint: 17.0°C (63°F) [RH = 100%]
Pressure (altimeter): 29.70 inches Hg (1006.0 mb)
Winds: from the NNE (30 degrees) at 16 MPH (14 knots; 7.2 m/s)
Visibility: 6 or more miles (10+ km)
Ceiling: 1500 feet AGL
Clouds: scattered clouds at 700 feet AGL
broken clouds at 1500 feet AGL
Weather: no significant weather observed at this time

METAR text: UHHH 180730Z 03006MPS 9999 BKN007 OVC016CB 18/17 Q1006 R05R/090060 NOSIG RMK QFE748/0998
Conditions at: UHHH (KHABAROVSK/NOVY , RU) observed 0730 UTC 18 August 2019
Temperature: 18.0°C (64°F)
Dewpoint: 17.0°C (63°F) [RH = 94%]
Pressure (altimeter): 29.70 inches Hg (1006.0 mb)
Winds: from the NNE (30 degrees) at 14 MPH (12 knots; 6.2 m/s)
Visibility: 6 or more miles (10+ km)
Ceiling: 700 feet AGL
Clouds: broken clouds at 700 feet AGL
overcast cloud deck at 1600 feet AGL
Weather: no significant weather observed at this time

METAR text: UHHH 180700Z 04006MPS 9999 FEW009 BKN024CB 18/17 Q1005 R05R/090060 NOSIG RMK QFE748/0997
Conditions at: UHHH (KHABAROVSK/NOVY , RU) observed 0700 UTC 18 August 2019
Temperature: 18.0°C (64°F)
Dewpoint: 17.0°C (63°F) [RH = 94%]
Pressure (altimeter): 29.68 inches Hg (1005.0 mb)
Winds: from the NE (40 degrees) at 14 MPH (12 knots; 6.2 m/s)
Visibility: 6 or more miles (10+ km)
Ceiling: 2400 feet AGL
Clouds: few clouds at 900 feet AGL
broken clouds at 2400 feet AGL
Weather: no significant weather observed at this time

METAR text: UHHH 180630Z 03006MPS 9999 FEW007 BKN023CB 19/17 Q1005 R05R/090060 NOSIG RMK QFE748/0997
Conditions at: UHHH (KHABAROVSK/NOVY , RU) observed 0630 UTC 18 August 2019
Temperature: 19.0°C (66°F)
Dewpoint: 17.0°C (63°F) [RH = 88%]
Pressure (altimeter): 29.68 inches Hg (1005.0 mb)
Winds: from the NNE (30 degrees) at 14 MPH (12 knots; 6.2 m/s)
Visibility: 6 or more miles (10+ km)
Ceiling: 2300 feet AGL
Clouds: few clouds at 700 feet AGL
broken clouds at 2300 feet AGL
Weather: no significant weather observed at this time

METAR text: UHHH 180600Z 03005MPS 9999 BKN020CB 19/17 Q1005 R05R/090060 NOSIG RMK QFE748/0997
Conditions at: UHHH (KHABAROVSK/NOVY , RU) observed 0600 UTC 18 August 2019
Temperature: 19.0°C (66°F)
Dewpoint: 17.0°C (63°F) [RH = 88%]
Pressure (altimeter): 29.68 inches Hg (1005.0 mb)
Winds: from the NNE (30 degrees) at 12 MPH (10 knots; 5.1 m/s)
Visibility: 6 or more miles (10+ km)
Ceiling: 2000 feet AGL
Clouds: broken clouds at 2000 feet AGL
Weather: no significant weather observed at this time

METAR text: UHHH 180530Z 04005MPS 9999 BKN030CB 19/18 Q1005 R05R/090060 NOSIG RMK QFE747/0997
Conditions at: UHHH (KHABAROVSK/NOVY , RU) observed 0530 UTC 18 August 2019
Temperature: 19.0°C (66°F)
Dewpoint: 18.0°C (64°F) [RH = 94%]
Pressure (altimeter): 29.68 inches Hg (1005.0 mb)
Winds: from the NE (40 degrees) at 12 MPH (10 knots; 5.1 m/s)
Visibility: 6 or more miles (10+ km)
Ceiling: 3000 feet AGL
Clouds: broken clouds at 3000 feet AGL
Weather: no significant weather observed at this time

METAR text: UHHH 180500Z 05003MPS 9999 BKN032CB 18/17 Q1005 R05R/090060 NOSIG RMK QFE748/0997
Conditions at: UHHH (KHABAROVSK/NOVY , RU) observed 0500 UTC 18 August 2019
Temperature: 18.0°C (64°F)
Dewpoint: 17.0°C (63°F) [RH = 94%]
Pressure (altimeter): 29.68 inches Hg (1005.0 mb)
Winds: from the NE (50 degrees) at 7 MPH (6 knots; 3.1 m/s)
Visibility: 6 or more miles (10+ km)
Ceiling: 3200 feet AGL
Clouds: broken clouds at 3200 feet AGL
Weather: no significant weather observed at this time

METAR text: UHHH 180430Z 05003MPS 020V090 9999 -SHRA BKN034CB 18/17 Q1005 R05R/090060 NOSIG RMK QFE748/0997
Conditions at: UHHH (KHABAROVSK/NOVY , RU) observed 0430 UTC 18 August 2019
Temperature: 18.0°C (64°F)
Dewpoint: 17.0°C (63°F) [RH = 94%]
Pressure (altimeter): 29.68 inches Hg (1005.0 mb)
Winds: from the NE (50 degrees) at 7 MPH (6 knots; 3.1 m/s)
Visibility: 6 or more miles (10+ km)
Ceiling: 3400 feet AGL
Clouds: broken clouds at 3400 feet AGL
Weather: -SHRA  (light rain showers)

METAR text: UHHH 180400Z 07003MPS 050V110 9999 -SHRA BKN019CB 18/16 Q1005 R05R/090060 NOSIG RMK QFE748/0997
Conditions at: UHHH (KHABAROVSK/NOVY , RU) observed 0400 UTC 18 August 2019
Temperature: 18.0°C (64°F)
Dewpoint: 16.0°C (61°F) [RH = 88%]
Pressure (altimeter): 29.68 inches Hg (1005.0 mb)
Winds: from the ENE (70 degrees) at 7 MPH (6 knots; 3.1 m/s)
Visibility: 6 or more miles (10+ km)
Ceiling: 1900 feet AGL
Clouds: broken clouds at 1900 feet AGL
Weather: -SHRA  (light rain showers)

METAR text: UHHH 180330Z 07004MPS 040V110 9999 FEW011 BKN028CB 18/16 Q1005 R05R/090060 NOSIG RMK QFE748/0997
Conditions at: UHHH (KHABAROVSK/NOVY , RU) observed 0330 UTC 18 August 2019
Temperature: 18.0°C (64°F)
Dewpoint: 16.0°C (61°F) [RH = 88%]
Pressure (altimeter): 29.68 inches Hg (1005.0 mb)
Winds: from the ENE (70 degrees) at 9 MPH (8 knots; 4.1 m/s)
Visibility: 6 or more miles (10+ km)
Ceiling: 2800 feet AGL
Clouds: few clouds at 1100 feet AGL
broken clouds at 2800 feet AGL
Weather: no significant weather observed at this time

METAR text: UHHH 180300Z 07003MPS 040V100 9999 BKN017CB 18/16 Q1005 R05R/090060 NOSIG RMK QFE748/0997
Conditions at: UHHH (KHABAROVSK/NOVY , RU) observed 0300 UTC 18 August 2019
Temperature: 18.0°C (64°F)
Dewpoint: 16.0°C (61°F) [RH = 88%]
Pressure (altimeter): 29.68 inches Hg (1005.0 mb)
Winds: from the ENE (70 degrees) at 7 MPH (6 knots; 3.1 m/s)
Visibility: 6 or more miles (10+ km)
Ceiling: 1700 feet AGL
Clouds: broken clouds at 1700 feet AGL
Weather: no significant weather observed at this time

METAR text: UHHH 180230Z 06004MPS 9999 BKN010CB 18/16 Q1005 R05R/090060 NOSIG RMK QFE748/0997
Conditions at: UHHH (KHABAROVSK/NOVY , RU) observed 0230 UTC 18 August 2019
Temperature: 18.0°C (64°F)
Dewpoint: 16.0°C (61°F) [RH = 88%]
Pressure (altimeter): 29.68 inches Hg (1005.0 mb)
Winds: from the ENE (60 degrees) at 9 MPH (8 knots; 4.1 m/s)
Visibility: 6 or more miles (10+ km)
Ceiling: 1000 feet AGL
Clouds: broken clouds at 1000 feet AGL
Weather: no significant weather observed at this time

METAR text: UHHH 180200Z 06004MPS 030V100 9999 BKN014CB 16/15 Q1005 R05R/290045 NOSIG RMK QFE748/0997
Conditions at: UHHH (KHABAROVSK/NOVY , RU) observed 0200 UTC 18 August 2019
Temperature: 16.0°C (61°F)
Dewpoint: 15.0°C (59°F) [RH = 94%]
Pressure (altimeter): 29.68 inches Hg (1005.0 mb)
Winds: from the ENE (60 degrees) at 9 MPH (8 knots; 4.1 m/s)
Visibility: 6 or more miles (10+ km)
Ceiling: 1400 feet AGL
Clouds: broken clouds at 1400 feet AGL
Weather: no significant weather observed at this time

METAR text: UHHH 180130Z 07003MPS 030V120 9999 BKN012CB 16/15 Q1005 R05R/290045 NOSIG RMK QFE748/0997
Conditions at: UHHH (KHABAROVSK/NOVY , RU) observed 0130 UTC 18 August 2019
Temperature: 16.0°C (61°F)
Dewpoint: 15.0°C (59°F) [RH = 94%]
Pressure (altimeter): 29.68 inches Hg (1005.0 mb)
Winds: from the ENE (70 degrees) at 7 MPH (6 knots; 3.1 m/s)
Visibility: 6 or more miles (10+ km)
Ceiling: 1200 feet AGL
Clouds: broken clouds at 1200 feet AGL
Weather: no significant weather observed at this time

METAR text: UHHH 180100Z 05004MPS 9999 BKN006 OVC027CB 15/15 Q1005 R05R/290045 NOSIG RMK QFE748/0997
Conditions at: UHHH (KHABAROVSK/NOVY , RU) observed 0100 UTC 18 August 2019
Temperature: 15.0°C (59°F)
Dewpoint: 15.0°C (59°F) [RH = 100%]
Pressure (altimeter): 29.68 inches Hg (1005.0 mb)
Winds: from the NE (50 degrees) at 9 MPH (8 knots; 4.1 m/s)
Visibility: 6 or more miles (10+ km)
Ceiling: 600 feet AGL
Clouds: broken clouds at 600 feet AGL
overcast cloud deck at 2700 feet AGL
Weather: no significant weather observed at this time

METAR text: UHHH 180030Z 06004MPS 9999 BKN013 OVC026CB 15/15 Q1005 R05R/290045 NOSIG RMK QFE747/0997
Conditions at: UHHH (KHABAROVSK/NOVY , RU) observed 0030 UTC 18 August 2019
Temperature: 15.0°C (59°F)
Dewpoint: 15.0°C (59°F) [RH = 100%]
Pressure (altimeter): 29.68 inches Hg (1005.0 mb)
Winds: from the ENE (60 degrees) at 9 MPH (8 knots; 4.1 m/s)
Visibility: 6 or more miles (10+ km)
Ceiling: 1300 feet AGL
Clouds: broken clouds at 1300 feet AGL
overcast cloud deck at 2600 feet AGL
Weather: no significant weather observed at this time

METAR text: UHHH 180000Z 05003MPS 9999 OVC007 15/15 Q1005 R05R/290045 NOSIG RMK QFE747/0997
Conditions at: UHHH (KHABAROVSK/NOVY , RU) observed 0000 UTC 18 August 2019
Temperature: 15.0°C (59°F)
Dewpoint: 15.0°C (59°F) [RH = 100%]
Pressure (altimeter): 29.68 inches Hg (1005.0 mb)
Winds: from the NE (50 degrees) at 7 MPH (6 knots; 3.1 m/s)
Visibility: 6 or more miles (10+ km)
Ceiling: 700 feet AGL
Clouds: overcast cloud deck at 700 feet AGL
Weather: no significant weather observed at this time

METAR text: UHHH 172330Z 05003MPS 020V080 9999 OVC005 15/15 Q1005 R05R/290045 NOSIG RMK QBB160 OBST OBSC QFE747/0996
Conditions at: UHHH (KHABAROVSK/NOVY , RU) observed 2330 UTC 17 August 2019
Temperature: 15.0°C (59°F)
Dewpoint: 15.0°C (59°F) [RH = 100%]
Pressure (altimeter): 29.68 inches Hg (1005.0 mb)
Winds: from the NE (50 degrees) at 7 MPH (6 knots; 3.1 m/s)
Visibility: 6 or more miles (10+ km)
Ceiling: 500 feet AGL
Clouds: overcast cloud deck at 500 feet AGL
Weather: no significant weather observed at this time

METAR text: UHHH 172300Z 06003MPS 040V110 9999 OVC006 15/15 Q1004 R05R/290045 NOSIG RMK QBB180 OBST OBSC QFE747/0996
Conditions at: UHHH (KHABAROVSK/NOVY , RU) observed 2300 UTC 17 August 2019
Temperature: 15.0°C (59°F)
Dewpoint: 15.0°C (59°F) [RH = 100%]
Pressure (altimeter): 29.65 inches Hg (1004.0 mb)
Winds: from the ENE (60 degrees) at 7 MPH (6 knots; 3.1 m/s)
Visibility: 6 or more miles (10+ km)
Ceiling: 600 feet AGL
Clouds: overcast cloud deck at 600 feet AGL
Weather: no significant weather observed at this time

METAR text: UHHH 172230Z 08003MPS 9999 OVC006 14/14 Q1004 R05R/290045 NOSIG RMK QBB180 OBST OBSC QFE747/0996
Conditions at: UHHH (KHABAROVSK/NOVY , RU) observed 2230 UTC 17 August 2019
Temperature: 14.0°C (57°F)
Dewpoint: 14.0°C (57°F) [RH = 100%]
Pressure (altimeter): 29.65 inches Hg (1004.0 mb)
Winds: from the E (80 degrees) at 7 MPH (6 knots; 3.1 m/s)
Visibility: 6 or more miles (10+ km)
Ceiling: 600 feet AGL
Clouds: overcast cloud deck at 600 feet AGL
Weather: no significant weather observed at this time

METAR text: UHHH 172200Z 07003MPS 9999 OVC004 14/14 Q1004 R05R/290045 NOSIG RMK QBB130 OBST OBSC QFE747/0996
Conditions at: UHHH (KHABAROVSK/NOVY , RU) observed 2200 UTC 17 August 2019
Temperature: 14.0°C (57°F)
Dewpoint: 14.0°C (57°F) [RH = 100%]
Pressure (altimeter): 29.65 inches Hg (1004.0 mb)
Winds: from the ENE (70 degrees) at 7 MPH (6 knots; 3.1 m/s)
Visibility: 6 or more miles (10+ km)
Ceiling: 400 feet AGL
Clouds: overcast cloud deck at 400 feet AGL
Weather: no significant weather observed at this time

METAR text: UHHH 172130Z 08003MPS 050V110 9999 OVC004 14/14 Q1004 R05R/290045 NOSIG RMK QBB110 OBST OBSC QFE747/0996
Conditions at: UHHH (KHABAROVSK/NOVY , RU) observed 2130 UTC 17 August 2019
Temperature: 14.0°C (57°F)
Dewpoint: 14.0°C (57°F) [RH = 100%]
Pressure (altimeter): 29.65 inches Hg (1004.0 mb)
Winds: from the E (80 degrees) at 7 MPH (6 knots; 3.1 m/s)
Visibility: 6 or more miles (10+ km)
Ceiling: 400 feet AGL
Clouds: overcast cloud deck at 400 feet AGL
Weather: no significant weather observed at this time

METAR text: UHHH 172100Z 07004MPS 040V100 7000 -DZ OVC004 14/14 Q1004 R05R/290045 NOSIG RMK QBB120 OBST OBSC QFE746/0995
Conditions at: UHHH (KHABAROVSK/NOVY , RU) observed 2100 UTC 17 August 2019
Temperature: 14.0°C (57°F)
Dewpoint: 14.0°C (57°F) [RH = 100%]
Pressure (altimeter): 29.65 inches Hg (1004.0 mb)
Winds: from the ENE (70 degrees) at 9 MPH (8 knots; 4.1 m/s)
Visibility: 4 miles ( 7 km)
Ceiling: 400 feet AGL
Clouds: overcast cloud deck at 400 feet AGL
Weather: -DZ  (light drizzle)

METAR text: UHHH 172030Z 08003MPS 040V100 9999 BKN004 OVC016CB 14/14 Q1003 R05R/290045 NOSIG RMK QBB130 OBST OBSC QFE746/0995
Conditions at: UHHH (KHABAROVSK/NOVY , RU) observed 2030 UTC 17 August 2019
Temperature: 14.0°C (57°F)
Dewpoint: 14.0°C (57°F) [RH = 100%]
Pressure (altimeter): 29.62 inches Hg (1003.0 mb)
Winds: from the E (80 degrees) at 7 MPH (6 knots; 3.1 m/s)
Visibility: 6 or more miles (10+ km)
Ceiling: 400 feet AGL
Clouds: broken clouds at 400 feet AGL
overcast cloud deck at 1600 feet AGL
Weather: no significant weather observed at this time

METAR text: UHHH 172000Z 06004MPS 7000 -SHRA BKN005 OVC017CB 14/14 Q1003 R05R/290045 NOSIG RMK QBB150 OBST OBSC QFE746/0995
Conditions at: UHHH (KHABAROVSK/NOVY , RU) observed 2000 UTC 17 August 2019
Temperature: 14.0°C (57°F)
Dewpoint: 14.0°C (57°F) [RH = 100%]
Pressure (altimeter): 29.62 inches Hg (1003.0 mb)
Winds: from the ENE (60 degrees) at 9 MPH (8 knots; 4.1 m/s)
Visibility: 4 miles ( 7 km)
Ceiling: 500 feet AGL
Clouds: broken clouds at 500 feet AGL
overcast cloud deck at 1700 feet AGL
Weather: -SHRA  (light rain showers)

METAR text: UHHH 171930Z 07004MPS 6000 1900SW R05R/1900D SHRA BKN004 OVC017CB 14/14 Q1003 R05R/290045 NOSIG RMK QBB130 OBST OBSC QFE746/0995
Conditions at: UHHH (KHABAROVSK/NOVY , RU) observed 1930 UTC 17 August 2019
Temperature: 14.0°C (57°F)
Dewpoint: 14.0°C (57°F) [RH = 100%]
Pressure (altimeter): 29.62 inches Hg (1003.0 mb)
Winds: from the ENE (70 degrees) at 9 MPH (8 knots; 4.1 m/s)
Visibility: 4 miles ( 6 km)
Ceiling: 400 feet AGL
Clouds: broken clouds at 400 feet AGL
overcast cloud deck at 1700 feet AGL
Weather: SHRA  (rain showers)

METAR text: UHHH 171900Z 06004MPS 5000 -SHRA BKN004 OVC017CB 14/14 Q1003 R05R/290045 NOSIG RMK QBB140 OBST OBSC QFE746/0994
Conditions at: UHHH (KHABAROVSK/NOVY , RU) observed 1900 UTC 17 August 2019
Temperature: 14.0°C (57°F)
Dewpoint: 14.0°C (57°F) [RH = 100%]
Pressure (altimeter): 29.62 inches Hg (1003.0 mb)
Winds: from the ENE (60 degrees) at 9 MPH (8 knots; 4.1 m/s)
Visibility: 3 miles ( 5 km)
Ceiling: 400 feet AGL
Clouds: broken clouds at 400 feet AGL
overcast cloud deck at 1700 feet AGL
Weather: -SHRA  (light rain showers)

METAR text: UHHH 171830Z 07004MPS 040V100 9000 -SHRA BKN004 OVC017CB 14/14 Q1002 R05R/290045 NOSIG RMK QBB140 OBST OBSC QFE746/0994
Conditions at: UHHH (KHABAROVSK/NOVY , RU) observed 1830 UTC 17 August 2019
Temperature: 14.0°C (57°F)
Dewpoint: 14.0°C (57°F) [RH = 100%]
Pressure (altimeter): 29.59 inches Hg (1002.0 mb)
Winds: from the ENE (70 degrees) at 9 MPH (8 knots; 4.1 m/s)
Visibility: 6 miles ( 9 km)
Ceiling: 400 feet AGL
Clouds: broken clouds at 400 feet AGL
overcast cloud deck at 1700 feet AGL
Weather: -SHRA  (light rain showers)

METAR text: UHHH 171800Z 07004MPS 9000 -SHRA BKN005 OVC016CB 14/14 Q1002 R05R/290045 NOSIG RMK QBB150 OBST OBSC QFE745/0994
Conditions at: UHHH (KHABAROVSK/NOVY , RU) observed 1800 UTC 17 August 2019
Temperature: 14.0°C (57°F)
Dewpoint: 14.0°C (57°F) [RH = 100%]
Pressure (altimeter): 29.59 inches Hg (1002.0 mb)
Winds: from the ENE (70 degrees) at 9 MPH (8 knots; 4.1 m/s)
Visibility: 6 miles ( 9 km)
Ceiling: 500 feet AGL
Clouds: broken clouds at 500 feet AGL
overcast cloud deck at 1600 feet AGL
Weather: -SHRA  (light rain showers)

METAR text: UHHH 171730Z 07004MPS 9000 -SHRA BKN005 OVC014CB 14/14 Q1002 R05R/290045 NOSIG RMK QBB170 OBST OBSC QFE745/0994
Conditions at: UHHH (KHABAROVSK/NOVY , RU) observed 1730 UTC 17 August 2019
Temperature: 14.0°C (57°F)
Dewpoint: 14.0°C (57°F) [RH = 100%]
Pressure (altimeter): 29.59 inches Hg (1002.0 mb)
Winds: from the ENE (70 degrees) at 9 MPH (8 knots; 4.1 m/s)
Visibility: 6 miles ( 9 km)
Ceiling: 500 feet AGL
Clouds: broken clouds at 500 feet AGL
overcast cloud deck at 1400 feet AGL
Weather: -SHRA  (light rain showers)

METAR text: UHHH 171700Z 06005MPS 030V100 9000 -SHRA BKN006 OVC013CB 14/14 Q1002 R05R/290045 NOSIG RMK QBB180 QFE745/0994
Conditions at: UHHH (KHABAROVSK/NOVY , RU) observed 1700 UTC 17 August 2019
Temperature: 14.0°C (57°F)
Dewpoint: 14.0°C (57°F) [RH = 100%]
Pressure (altimeter): 29.59 inches Hg (1002.0 mb)
Winds: from the ENE (60 degrees) at 12 MPH (10 knots; 5.1 m/s)
Visibility: 6 miles ( 9 km)
Ceiling: 600 feet AGL
Clouds: broken clouds at 600 feet AGL
overcast cloud deck at 1300 feet AGL
Weather: -SHRA  (light rain showers)

METAR text: UHHH 171630Z 07004MPS 9999 -SHRA OVC009CB 14/14 Q1002 R05R/290045 NOSIG RMK QFE745/0994
Conditions at: UHHH (KHABAROVSK/NOVY , RU) observed 1630 UTC 17 August 2019
Temperature: 14.0°C (57°F)
Dewpoint: 14.0°C (57°F) [RH = 100%]
Pressure (altimeter): 29.59 inches Hg (1002.0 mb)
Winds: from the ENE (70 degrees) at 9 MPH (8 knots; 4.1 m/s)
Visibility: 6 or more miles (10+ km)
Ceiling: 900 feet AGL
Clouds: overcast cloud deck at 900 feet AGL
Weather: -SHRA  (light rain showers)

METAR text: UHHH 171600Z 06004MPS 030V090 8000 -SHRA OVC016CB 15/14 Q1002 R05R/290045 NOSIG RMK QFE745/0993
Conditions at: UHHH (KHABAROVSK/NOVY , RU) observed 1600 UTC 17 August 2019
Temperature: 15.0°C (59°F)
Dewpoint: 14.0°C (57°F) [RH = 94%]
Pressure (altimeter): 29.59 inches Hg (1002.0 mb)
Winds: from the ENE (60 degrees) at 9 MPH (8 knots; 4.1 m/s)
Visibility: 5 miles ( 8 km)
Ceiling: 1600 feet AGL
Clouds: overcast cloud deck at 1600 feet AGL
Weather: -SHRA  (light rain showers)

METAR text: UHHH 171530Z 05004MPS 9999 OVC026CB 15/14 Q1002 R05R/290045 NOSIG RMK QFE745/0993
Conditions at: UHHH (KHABAROVSK/NOVY , RU) observed 1530 UTC 17 August 2019
Temperature: 15.0°C (59°F)
Dewpoint: 14.0°C (57°F) [RH = 94%]
Pressure (altimeter): 29.59 inches Hg (1002.0 mb)
Winds: from the NE (50 degrees) at 9 MPH (8 knots; 4.1 m/s)
Visibility: 6 or more miles (10+ km)
Ceiling: 2600 feet AGL
Clouds: overcast cloud deck at 2600 feet AGL
Weather: no significant weather observed at this time

METAR text: UHHH 171500Z 05005MPS 9999 -SHRA OVC031CB 15/15 Q1001 R05R/190050 NOSIG RMK QFE745/0993
Conditions at: UHHH (KHABAROVSK/NOVY , RU) observed 1500 UTC 17 August 2019
Temperature: 15.0°C (59°F)
Dewpoint: 15.0°C (59°F) [RH = 100%]
Pressure (altimeter): 29.56 inches Hg (1001.0 mb)
Winds: from the NE (50 degrees) at 12 MPH (10 knots; 5.1 m/s)
Visibility: 6 or more miles (10+ km)
Ceiling: 3100 feet AGL
Clouds: overcast cloud deck at 3100 feet AGL
Weather: -SHRA  (light rain showers)

METAR text: UHHH 171430Z 05005MPS 9000 -SHRA OVC009CB 15/15 Q1001 R05R/190050 NOSIG RMK QFE745/0993
Conditions at: UHHH (KHABAROVSK/NOVY , RU) observed 1430 UTC 17 August 2019
Temperature: 15.0°C (59°F)
Dewpoint: 15.0°C (59°F) [RH = 100%]
Pressure (altimeter): 29.56 inches Hg (1001.0 mb)
Winds: from the NE (50 degrees) at 12 MPH (10 knots; 5.1 m/s)
Visibility: 6 miles ( 9 km)
Ceiling: 900 feet AGL
Clouds: overcast cloud deck at 900 feet AGL
Weather: -SHRA  (light rain showers)

METAR text: UHHH 171400Z 05005MPS 8000 -SHRA OVC015CB 15/15 Q1001 R05R/190050 NOSIG RMK QFE744/0993
Conditions at: UHHH (KHABAROVSK/NOVY , RU) observed 1400 UTC 17 August 2019
Temperature: 15.0°C (59°F)
Dewpoint: 15.0°C (59°F) [RH = 100%]
Pressure (altimeter): 29.56 inches Hg (1001.0 mb)
Winds: from the NE (50 degrees) at 12 MPH (10 knots; 5.1 m/s)
Visibility: 5 miles ( 8 km)
Ceiling: 1500 feet AGL
Clouds: overcast cloud deck at 1500 feet AGL
Weather: -SHRA  (light rain showers)

METAR text: UHHH 171330Z 05006MPS 9999 OVC034CB 15/15 Q1001 R05R/190050 NOSIG RMK QFE744/0993
Conditions at: UHHH (KHABAROVSK/NOVY , RU) observed 1330 UTC 17 August 2019
Temperature: 15.0°C (59°F)
Dewpoint: 15.0°C (59°F) [RH = 100%]
Pressure (altimeter): 29.56 inches Hg (1001.0 mb)
Winds: from the NE (50 degrees) at 14 MPH (12 knots; 6.2 m/s)
Visibility: 6 or more miles (10+ km)
Ceiling: 3400 feet AGL
Clouds: overcast cloud deck at 3400 feet AGL
Weather: no significant weather observed at this time

METAR text: UHHH 171300Z 05006MPS 9999 OVC028CB 15/15 Q1001 R05R/190050 NOSIG RMK QFE744/0993
Conditions at: UHHH (KHABAROVSK/NOVY , RU) observed 1300 UTC 17 August 2019
Temperature: 15.0°C (59°F)
Dewpoint: 15.0°C (59°F) [RH = 100%]
Pressure (altimeter): 29.56 inches Hg (1001.0 mb)
Winds: from the NE (50 degrees) at 14 MPH (12 knots; 6.2 m/s)
Visibility: 6 or more miles (10+ km)
Ceiling: 2800 feet AGL
Clouds: overcast cloud deck at 2800 feet AGL
Weather: no significant weather observed at this time

Forecast for: UHHH (KHABAROVSK/NOVY , RU)
Text: TAF UHHH 182248Z 1900/2006 25006MPS 9999 SCT011 SCT025CB
Forecast period: 0000 to 0900 UTC 19 August 2019
Forecast type: FROM: standard forecast or significant change
Winds: from the WSW (250 degrees) at 14 MPH (12 knots; 6.2 m/s)
Visibility: 6 or more miles 10+ km)
Ceiling: at least 12,000 feet AGL
Clouds: scattered clouds at 1100 feet AGL
scattered clouds at 2500 feet AGL
Weather: no significant weather forecast for this period
Text: TEMPO 1900/1915 3100 -SHRA BKN011 BKN015CB
Forecast period: 0000 to 1500 UTC 19 August 2019
Forecast type: TEMPORARY: The following changes expected for less than half the time period
Visibility: 1.93 miles (3.11 km)
Ceiling: 1100 feet AGL
Clouds: broken clouds at 1100 feet AGL
broken clouds at 1500 feet AGL
Weather: -SHRA  (light rain showers)
Text: BECMG 1909/1910 05003MPS
Forecast period: 0900 UTC 19 August 2019 to 0600 UTC 20 August 2019
Forecast type: BECOMING: Conditions expected to become as follows by 1000 UTC 19 August 2019
Winds: from the NE (50 degrees) at 7 MPH (6 knots; 3.1 m/s)
Visibility: 6 or more miles 10+ km)
Ceiling: at least 12,000 feet AGL
Clouds: scattered clouds at 1100 feet AGL
scattered clouds at 2500 feet AGL
Weather: no significant weather forecast for this period